Time;durP1;ratioP1;P1;durP2;ratioP2;P2;SDS_P1;SDS_P2;PMS_P1;PMS_P2;Temp;Humidity;BMP_temperature;BMP_pressure;BME280_temperature;BME280_humidity;BME280_pressure;Samples;Min_cycle;Max_cycle;Signal;HPM_P1;HPM_P2
2022/02/10 00:07:18;;;;;;;9.60;7.40;;;3.40;96.00;;;;;;5121507;28;20225;-75
2022/02/10 00:15:59;;;;;;;10.73;7.80;;;3.40;96.30;;;;;;5118281;28;20200;-76
2022/02/10 00:18:46;;;;;;;8.38;6.30;;;3.40;96.30;;;;;;5125929;22;20584;-81
2022/02/10 00:21:23;;;;;;;9.35;6.70;;;3.30;96.30;;;;;;5083023;28;20226;-80
2022/02/10 00:24:10;;;;;;;11.43;6.90;;;3.30;96.40;;;;;;5076171;28;20210;-82
2022/02/10 00:34:56;;;;;;;9.00;6.47;;;3.30;96.30;;;;;;5088884;28;20236;-80
2022/02/10 00:37:35;;;;;;;8.02;6.07;;;3.20;96.20;;;;;;5088608;28;20224;-80
2022/02/10 00:40:09;;;;;;;11.70;7.10;;;3.30;96.90;;;;;;5090892;28;20289;-82
2022/02/10 00:42:36;;;;;;;9.82;6.68;;;3.30;96.80;;;;;;5090683;28;20225;-81
2022/02/10 00:45:04;;;;;;;9.30;5.97;;;3.30;96.50;;;;;;5087070;28;20213;-81
2022/02/10 00:47:40;;;;;;;10.07;6.72;;;3.30;96.30;;;;;;5089315;28;20210;-81
2022/02/10 00:50:09;;;;;;;9.15;7.22;;;3.30;96.20;;;;;;5087231;28;20279;-80
2022/02/10 00:52:41;;;;;;;7.68;6.82;;;3.30;96.10;;;;;;5090677;28;20202;-80
2022/02/10 00:55:09;;;;;;;9.40;7.18;;;3.20;96.20;;;;;;5090008;28;20206;-80
2022/02/10 00:57:36;;;;;;;9.75;7.10;;;3.20;96.20;;;;;;5076711;28;20278;-80
2022/02/10 01:00:23;;;;;;;12.00;7.10;;;3.20;95.70;;;;;;5075629;28;20333;-80
2022/02/10 01:11:28;;;;;;;10.25;6.15;;;3.20;94.80;;;;;;5075895;28;20250;-81
2022/02/10 01:14:01;;;;;;;8.48;6.72;;;3.20;94.50;;;;;;5070552;28;20268;-81
2022/02/10 01:30:12;;;;;;;6.95;5.85;;;3.00;95.20;;;;;;5065211;28;20226;-81
2022/02/10 01:32:44;;;;;;;8.13;6.18;;;3.00;95.10;;;;;;5073348;28;20262;-82
2022/02/10 01:35:15;;;;;;;7.90;5.97;;;3.00;94.80;;;;;;5073864;28;20222;-82
2022/02/10 01:37:43;;;;;;;9.88;6.55;;;2.90;94.70;;;;;;5068936;28;20278;-81
2022/02/10 01:40:18;;;;;;;9.07;6.30;;;2.90;95.00;;;;;;5065113;28;20245;-81
2022/02/10 01:43:25;;;;;;;8.13;5.55;;;2.80;94.80;;;;;;5067034;28;20206;-81
2022/02/10 02:13:02;;;;;;;7.45;6.03;;;2.70;94.50;;;;;;4885183;29;20215;-79
2022/02/10 02:26:13;;;;;;;6.22;5.00;;;2.60;94.30;;;;;;4843894;29;20221;-80
2022/02/10 02:39:19;;;;;;;6.43;4.80;;;2.30;94.50;;;;;;4929634;29;20214;-79
2022/02/10 03:07:07;;;;;;;6.70;5.38;;;2.20;95.30;;;;;;5552019;22;20235;-80
2022/02/10 04:14:05;;;;;;;9.15;5.18;;;2.30;95.20;;;;;;5597684;23;20240;-78
2022/02/10 04:22:04;;;;;;;5.55;4.15;;;2.30;94.60;;;;;;4982903;28;20232;-79
2022/02/10 04:25:00;;;;;;;6.80;4.65;;;2.30;94.50;;;;;;4998822;28;20649;-78
2022/02/10 04:27:50;;;;;;;5.13;4.55;;;2.30;94.10;;;;;;4998478;28;20207;-79
2022/02/10 04:30:34;;;;;;;5.57;4.28;;;2.40;93.90;;;;;;4997226;28;20641;-79
2022/02/10 04:39:17;;;;;;;6.78;4.70;;;2.40;93.00;;;;;;4997353;28;20184;-79
2022/02/10 04:45:18;;;;;;;7.25;4.28;;;2.30;92.40;;;;;;4993757;28;20574;-79
2022/02/10 04:56:08;;;;;;;5.75;4.18;;;2.20;92.10;;;;;;5010702;28;20196;-79
2022/02/10 04:58:52;;;;;;;6.65;4.00;;;2.20;91.80;;;;;;5014266;28;20232;-80
2022/02/10 05:01:34;;;;;;;4.82;4.40;;;2.20;92.00;;;;;;5018477;28;20243;-80
2022/02/10 05:07:24;;;;;;;7.32;4.90;;;2.10;91.80;;;;;;5016540;28;20212;-78
2022/02/10 05:21:18;;;;;;;5.95;4.38;;;2.10;92.20;;;;;;5004554;23;20241;-79
2022/02/10 05:24:10;;;;;;;5.38;4.28;;;2.10;92.30;;;;;;4991645;28;20216;-78
2022/02/10 05:32:31;;;;;;;5.15;4.53;;;2.00;92.40;;;;;;4980435;28;20209;-78
2022/02/10 05:35:11;;;;;;;6.22;4.70;;;2.10;92.90;;;;;;4980129;28;20232;-78
2022/02/10 05:37:41;;;;;;;6.55;4.57;;;2.10;93.00;;;;;;4980092;28;20205;-77
2022/02/10 05:40:15;;;;;;;8.27;4.72;;;2.10;92.80;;;;;;4981051;28;20249;-77
2022/02/10 05:43:16;;;;;;;7.65;4.75;;;2.10;92.70;;;;;;4981499;28;20200;-78
2022/02/10 05:45:50;;;;;;;8.40;5.47;;;2.00;92.80;;;;;;4980705;28;20284;-78
2022/02/10 05:56:16;;;;;;;9.00;4.88;;;2.10;93.00;;;;;;4998610;23;20239;-78
2022/02/10 05:59:22;;;;;;;5.68;4.55;;;2.20;93.10;;;;;;4994554;28;20228;-78
2022/02/10 06:51:35;;;;;;;8.23;5.40;;;1.80;94.00;;;;;;4969398;28;20193;-75
2022/02/10 06:54:14;;;;;;;7.80;5.00;;;1.80;93.90;;;;;;4982782;28;20649;-75
2022/02/10 06:57:05;;;;;;;11.07;5.50;;;1.70;93.30;;;;;;4982580;28;20673;-74
2022/02/10 07:08:08;;;;;;;7.03;5.95;;;1.80;93.50;;;;;;4976513;28;20201;-75
2022/02/10 07:49:42;;;;;;;11.90;6.03;;;3.00;90.20;;;;;;4985005;28;20228;-76
2022/02/10 07:55:24;;;;;;;7.13;5.70;;;3.20;88.10;;;;;;4987640;28;20256;-75
2022/02/10 07:58:09;;;;;;;9.60;6.75;;;3.30;87.20;;;;;;4977337;28;20193;-76
2022/02/10 08:00:58;;;;;;;7.40;6.30;;;3.60;86.70;;;;;;4976443;28;20348;-75
2022/02/10 08:51:17;;;;;;;7.57;4.65;;;8.20;56.30;;;;;;4981215;28;20219;-76
2022/02/10 08:56:24;;;;;;;8.98;4.90;;;8.40;55.40;;;;;;4979852;28;20216;-76
2022/02/10 08:59:12;;;;;;;7.30;4.85;;;8.50;55.10;;;;;;4980127;28;20184;-75
2022/02/10 09:01:55;;;;;;;7.35;4.88;;;8.60;54.70;;;;;;4985216;28;20290;-76
2022/02/10 09:04:28;;;;;;;11.82;4.80;;;8.60;54.70;;;;;;4988968;28;20201;-77
2022/02/10 09:07:20;;;;;;;8.15;4.30;;;8.60;54.80;;;;;;4985587;28;20556;-75
2022/02/10 09:12:45;;;;;;;9.75;5.13;;;8.90;54.00;;;;;;4977003;28;20210;-76
2022/02/10 09:15:42;;;;;;;9.70;4.60;;;9.00;54.80;;;;;;4976910;28;20215;-76
2022/02/10 10:00:09;;;;;;;15.07;6.03;;;10.40;49.60;;;;;;4990616;28;20252;-76
2022/02/10 10:02:40;;;;;;;10.85;6.05;;;10.30;49.50;;;;;;4994673;28;20229;-76
2022/02/10 10:05:21;;;;;;;10.45;5.97;;;10.40;49.60;;;;;;4993206;28;20303;-75
2022/02/10 10:10:47;;;;;;;8.23;5.95;;;10.40;49.60;;;;;;4978764;28;20228;-77
2022/02/10 10:13:55;;;;;;;8.73;5.20;;;10.50;49.60;;;;;;4982148;28;20218;-76
2022/02/10 10:19:15;;;;;;;12.35;7.30;;;10.60;49.80;;;;;;4988917;28;20200;-77
2022/02/10 10:21:49;;;;;;;8.63;6.55;;;10.60;49.70;;;;;;4983500;28;20290;-77
2022/02/10 10:24:41;;;;;;;8.43;6.43;;;10.50;49.70;;;;;;4978525;28;20209;-76
2022/02/10 10:27:30;;;;;;;9.02;6.15;;;10.50;49.70;;;;;;4986327;28;20256;-78
2022/02/10 10:49:50;;;;;;;11.32;7.50;;;9.90;51.20;;;;;;4977880;28;20227;-76
2022/02/10 10:52:30;;;;;;;9.23;6.20;;;9.80;51.10;;;;;;4978030;28;20607;-76
2022/02/10 10:55:18;;;;;;;9.57;7.30;;;9.90;51.20;;;;;;4978670;28;20222;-76
2022/02/10 10:57:49;;;;;;;11.32;6.75;;;10.00;49.80;;;;;;4980112;28;20212;-76
2022/02/10 11:39:46;;;;;;;7.50;5.47;;;9.20;53.50;;;;;;4987913;28;20204;-76
2022/02/10 11:42:38;;;;;;;9.40;6.13;;;9.10;53.10;;;;;;4983419;28;20233;-76
2022/02/10 11:46:00;;;;;;;13.02;6.15;;;9.00;53.50;;;;;;4980362;28;20286;-77
2022/02/10 15:29:40;;;;;;;7.15;5.43;;;8.40;51.10;;;;;;4937978;29;20306;-76
2022/02/10 15:51:31;;;;;;;5.40;4.40;;;8.10;52.70;;;;;;4979479;28;20278;-76
2022/02/10 15:54:24;;;;;;;6.53;4.60;;;8.10;52.70;;;;;;4986297;28;20193;-76
2022/02/10 16:10:46;;;;;;;5.50;4.75;;;8.10;52.80;;;;;;4993373;28;20231;-75
2022/02/10 16:19:16;;;;;;;8.60;5.03;;;8.00;53.20;;;;;;4974600;28;20707;-76
2022/02/10 16:21:46;;;;;;;7.53;4.80;;;8.00;53.20;;;;;;4974397;28;20231;-76
2022/02/10 16:24:19;;;;;;;7.75;4.95;;;8.00;53.20;;;;;;4974142;28;20703;-79
2022/02/10 16:26:57;;;;;;;5.63;5.05;;;8.00;54.00;;;;;;4973824;28;20237;-76
2022/02/10 16:29:26;;;;;;;7.60;5.43;;;8.00;53.20;;;;;;4973847;28;20214;-76
2022/02/10 16:31:54;;;;;;;6.70;5.50;;;8.00;53.20;;;;;;4974805;28;20305;-75
2022/02/10 16:34:21;;;;;;;8.45;5.10;;;7.90;53.20;;;;;;4975599;28;20261;-76
2022/02/10 16:36:49;;;;;;;10.35;6.55;;;8.00;53.60;;;;;;4977650;28;20322;-78
2022/02/10 16:39:17;;;;;;;10.98;6.32;;;8.00;53.20;;;;;;4976155;28;20253;-75
2022/02/10 16:41:44;;;;;;;8.77;5.18;;;8.00;53.20;;;;;;4978462;28;20298;-76
2022/02/10 16:44:12;;;;;;;8.85;5.50;;;8.00;53.20;;;;;;4983474;28;20210;-76
2022/02/10 16:46:39;;;;;;;8.00;5.47;;;8.00;53.20;;;;;;4982841;28;20305;-75
2022/02/10 16:49:07;;;;;;;6.50;4.45;;;8.00;53.20;;;;;;4980585;28;20236;-75
2022/02/10 16:51:36;;;;;;;9.48;5.30;;;8.00;53.20;;;;;;4980969;28;20226;-76
2022/02/10 16:54:10;;;;;;;6.80;4.70;;;8.00;53.20;;;;;;4981934;28;20297;-80
2022/02/10 16:56:48;;;;;;;6.72;4.95;;;8.00;53.20;;;;;;4978331;28;20242;-76
2022/02/10 16:59:29;;;;;;;7.13;4.65;;;7.90;52.90;;;;;;4977611;28;20218;-76
2022/02/10 17:02:19;;;;;;;4.85;4.00;;;8.00;52.80;;;;;;4977189;28;20222;-76
2022/02/10 17:25:06;;;;;;;6.25;4.40;;;8.00;52.80;;;;;;4968975;28;20211;-75
2022/02/10 17:27:10;;;;;;;5.75;4.20;;;8.00;52.80;;;;;;4977377;28;20406;-76
2022/02/10 17:30:04;;;;;;;4.65;3.67;;;8.00;52.40;;;;;;4978255;28;20200;-76
2022/02/10 17:32:45;;;;;;;5.60;4.32;;;8.00;52.60;;;;;;4978732;28;20242;-76
2022/02/10 17:35:20;;;;;;;5.82;4.35;;;8.00;52.60;;;;;;4978805;28;20204;-77
2022/02/10 17:46:21;;;;;;;4.68;3.90;;;7.90;52.70;;;;;;4950194;29;20221;-78
2022/02/10 17:51:52;;;;;;;5.88;3.85;;;7.90;53.00;;;;;;4950140;29;20308;-78
2022/02/10 17:54:20;;;;;;;6.35;4.95;;;7.90;53.10;;;;;;4956447;29;20204;-75
2022/02/10 17:56:48;;;;;;;6.35;4.75;;;7.90;53.10;;;;;;4955802;29;20276;-77
2022/02/10 17:59:15;;;;;;;6.45;4.22;;;7.90;53.10;;;;;;4948788;29;20252;-77
2022/02/10 18:01:44;;;;;;;7.38;5.00;;;7.90;52.80;;;;;;4944417;29;20771;-77
2022/02/10 18:04:12;;;;;;;5.80;4.72;;;7.90;52.80;;;;;;4946480;29;20237;-76
2022/02/10 18:06:43;;;;;;;5.57;4.50;;;7.90;53.10;;;;;;4947460;29;20331;-79
2022/02/10 18:09:38;;;;;;;8.70;5.38;;;7.90;52.60;;;;;;4945645;29;20215;-76
2022/02/10 18:14:57;;;;;;;7.03;4.72;;;8.00;53.00;;;;;;4936241;28;20204;-77
2022/02/10 18:17:27;;;;;;;8.43;5.50;;;7.90;52.70;;;;;;4970970;28;20247;-76
2022/02/10 18:19:57;;;;;;;5.72;4.85;;;7.90;52.80;;;;;;5017517;28;20230;-76
2022/02/10 18:22:45;;;;;;;8.30;5.28;;;7.90;53.10;;;;;;5015441;28;20224;-77
2022/02/10 18:25:25;;;;;;;8.00;5.65;;;7.90;52.90;;;;;;4999605;28;20207;-76
2022/02/10 18:28:17;;;;;;;8.27;5.07;;;7.90;53.10;;;;;;5002634;28;20206;-77
2022/02/10 18:34:09;;;;;;;6.35;5.50;;;7.90;53.00;;;;;;4993286;28;20264;-77
2022/02/10 19:01:46;;;;;;;7.05;5.15;;;7.90;52.80;;;;;;4997840;28;20225;-77
2022/02/10 19:07:05;;;;;;;5.93;5.10;;;7.90;52.80;;;;;;4999303;28;20236;-77
2022/02/10 19:09:36;;;;;;;9.05;5.00;;;7.90;53.20;;;;;;4998566;28;20272;-77
2022/02/10 19:12:06;;;;;;;8.38;5.57;;;7.80;53.10;;;;;;4998804;28;20215;-77
2022/02/10 19:14:36;;;;;;;7.50;5.78;;;7.70;53.00;;;;;;4999601;28;20499;-76
2022/02/10 19:17:05;;;;;;;7.35;5.13;;;7.60;53.20;;;;;;4999581;28;20238;-76
2022/02/10 19:19:32;;;;;;;7.38;4.90;;;7.50;53.70;;;;;;5000642;28;20214;-77
2022/02/10 19:21:59;;;;;;;7.45;5.40;;;7.40;54.20;;;;;;5007361;28;20214;-76
2022/02/10 19:24:26;;;;;;;10.60;5.50;;;7.30;55.30;;;;;;5011709;28;20288;-76
2022/02/10 19:26:53;;;;;;;9.40;6.47;;;7.30;54.90;;;;;;5009966;28;20253;-76
2022/02/10 19:29:21;;;;;;;7.38;5.85;;;7.10;55.30;;;;;;5002641;28;20216;-75
2022/02/10 19:31:49;;;;;;;10.65;5.90;;;7.10;55.70;;;;;;4998719;28;20211;-77
2022/02/10 19:34:17;;;;;;;12.43;5.43;;;7.10;56.40;;;;;;4998735;28;20283;-77
2022/02/10 19:36:44;;;;;;;8.52;6.15;;;7.00;57.10;;;;;;4999112;28;20700;-76
2022/02/10 19:39:15;;;;;;;9.05;6.15;;;7.00;57.10;;;;;;4999457;28;20219;-76
2022/02/10 19:41:46;;;;;;;11.13;5.93;;;6.90;57.00;;;;;;5007975;28;20274;-76
2022/02/10 19:44:14;;;;;;;10.73;6.20;;;6.90;57.00;;;;;;5005453;28;20232;-76
2022/02/10 19:46:43;;;;;;;8.32;6.10;;;6.80;56.90;;;;;;5003143;28;20292;-76
2022/02/10 19:49:14;;;;;;;9.85;6.15;;;6.90;57.00;;;;;;5000816;28;20210;-75
2022/02/10 19:51:42;;;;;;;10.85;6.35;;;6.80;57.10;;;;;;5009602;28;20226;-76
2022/02/10 19:54:09;;;;;;;10.07;6.70;;;6.80;57.50;;;;;;5011681;28;20268;-77
2022/02/10 19:56:37;;;;;;;9.45;6.18;;;6.80;57.80;;;;;;5009903;28;20240;-77
2022/02/10 19:59:04;;;;;;;9.18;6.18;;;6.80;57.90;;;;;;5012690;28;20214;-78
2022/02/10 20:01:31;;;;;;;7.53;5.65;;;6.90;57.60;;;;;;5013656;28;20218;-81
2022/02/10 20:04:03;;;;;;;7.60;6.05;;;6.90;57.50;;;;;;5010515;28;20887;-80
2022/02/10 20:06:30;;;;;;;7.97;5.88;;;6.90;57.30;;;;;;5013488;28;20244;-80
2022/02/10 20:08:59;;;;;;;8.93;6.88;;;6.90;57.00;;;;;;5009227;28;20213;-76
2022/02/10 20:11:25;;;;;;;9.25;5.88;;;7.00;57.10;;;;;;5010640;28;20209;-76
2022/02/10 20:13:52;;;;;;;9.95;6.10;;;6.90;57.00;;;;;;5007016;28;20264;-77
2022/02/10 20:16:19;;;;;;;8.95;5.93;;;7.00;57.10;;;;;;4997795;28;20312;-77
2022/02/10 20:18:48;;;;;;;8.98;5.95;;;7.00;57.10;;;;;;4998970;28;20206;-76
2022/02/10 20:21:15;;;;;;;8.23;5.63;;;7.10;57.10;;;;;;4983787;28;20237;-78
2022/02/10 20:23:43;;;;;;;8.75;6.97;;;7.10;57.10;;;;;;4992170;28;20226;-77
2022/02/10 20:26:13;;;;;;;10.07;5.90;;;7.10;57.10;;;;;;5006074;28;20671;-76
2022/02/10 20:28:40;;;;;;;7.32;5.43;;;7.10;57.10;;;;;;5007503;28;20203;-77
2022/02/10 20:31:09;;;;;;;8.40;6.20;;;7.20;57.20;;;;;;5012328;28;20239;-79
2022/02/10 20:33:36;;;;;;;9.18;6.40;;;7.10;57.10;;;;;;5010034;28;20296;-76
2022/02/10 20:36:05;;;;;;;8.35;6.43;;;7.20;56.90;;;;;;4997163;28;20301;-76
2022/02/10 20:38:35;;;;;;;11.20;7.95;;;7.20;56.70;;;;;;4996608;28;20206;-76
2022/02/10 20:41:08;;;;;;;9.13;6.95;;;7.20;56.80;;;;;;5014664;28;20213;-76
2022/02/10 20:43:37;;;;;;;8.70;6.78;;;7.10;57.00;;;;;;5012322;28;20253;-76
2022/02/10 20:46:07;;;;;;;8.57;7.07;;;7.10;57.10;;;;;;4995740;28;20234;-76
2022/02/10 20:48:38;;;;;;;13.50;9.05;;;7.10;57.10;;;;;;4986692;28;20206;-77
2022/02/10 20:51:07;;;;;;;8.43;6.97;;;7.10;57.10;;;;;;4984167;28;20215;-77
2022/02/10 20:53:36;;;;;;;9.90;7.55;;;7.10;57.10;;;;;;4986092;28;20209;-76
2022/02/10 20:56:05;;;;;;;10.63;7.72;;;7.20;57.20;;;;;;4998993;28;20657;-77
2022/02/10 20:58:32;;;;;;;10.23;7.25;;;7.20;57.20;;;;;;4996162;28;20294;-77
2022/02/10 21:01:02;;;;;;;8.43;7.20;;;7.20;57.20;;;;;;4999666;28;20210;-76
2022/02/10 21:03:32;;;;;;;12.20;7.47;;;7.20;56.80;;;;;;4992760;28;20555;-76
2022/02/10 21:06:07;;;;;;;9.38;7.00;;;7.30;56.30;;;;;;4979962;28;20241;-74
2022/02/10 21:08:42;;;;;;;8.25;6.82;;;7.30;56.10;;;;;;4978796;28;20211;-75
2022/02/10 21:11:09;;;;;;;10.88;7.32;;;7.30;55.70;;;;;;4978319;28;20216;-76
2022/02/10 21:13:37;;;;;;;8.93;7.13;;;7.30;55.60;;;;;;4987226;28;20226;-75
2022/02/10 21:16:06;;;;;;;9.02;7.05;;;7.40;55.30;;;;;;5006138;28;20239;-75
2022/02/10 21:18:34;;;;;;;8.70;6.47;;;7.40;55.30;;;;;;4993862;28;20297;-76
2022/02/10 21:21:05;;;;;;;9.63;7.20;;;7.40;55.10;;;;;;4978118;28;20218;-75
2022/02/10 21:23:37;;;;;;;7.13;6.40;;;7.40;55.40;;;;;;4989983;28;20221;-75
2022/02/10 21:26:06;;;;;;;7.85;6.63;;;7.40;55.40;;;;;;4998706;28;20233;-77
2022/02/10 21:28:36;;;;;;;10.07;6.28;;;7.40;54.80;;;;;;4999120;28;20625;-75
2022/02/10 21:31:06;;;;;;;7.95;6.72;;;7.40;54.70;;;;;;4999724;28;20213;-76
2022/02/10 21:33:46;;;;;;;9.35;6.32;;;7.50;54.50;;;;;;5003681;28;20214;-75
2022/02/10 21:39:04;;;;;;;8.55;5.78;;;7.50;54.60;;;;;;4999392;28;20717;-75
2022/02/10 21:55:51;;;;;;;9.85;7.20;;;7.60;54.90;;;;;;5001471;28;20231;-77
2022/02/10 22:07:27;;;;;;;11.15;6.70;;;7.40;55.70;;;;;;4980351;28;20260;-76
2022/02/10 22:09:49;;;;;;;9.40;7.28;;;7.40;56.20;;;;;;4983433;28;20573;-77
2022/02/10 22:20:55;;;;;;;13.55;7.55;;;7.40;56.60;;;;;;4958036;29;20645;-75
2022/02/10 22:23:26;;;;;;;11.00;7.00;;;7.40;56.60;;;;;;4959592;28;20291;-74
2022/02/10 22:25:59;;;;;;;11.13;7.68;;;7.30;56.60;;;;;;4994730;28;20230;-77
2022/02/10 22:28:32;;;;;;;10.07;7.38;;;7.40;56.80;;;;;;4993606;28;20219;-76
2022/02/10 22:33:55;;;;;;;10.77;7.05;;;7.40;56.20;;;;;;4972625;28;20661;-74
2022/02/10 22:36:24;;;;;;;13.80;7.60;;;7.30;57.30;;;;;;4995071;28;20231;-75
2022/02/10 22:38:53;;;;;;;12.95;8.15;;;7.30;57.30;;;;;;4995647;28;20208;-76
2022/02/10 22:41:21;;;;;;;9.80;7.45;;;7.30;57.30;;;;;;4994971;28;20215;-76
2022/02/10 22:43:51;;;;;;;9.05;7.63;;;7.40;56.70;;;;;;4988923;28;20668;-75
2022/02/10 22:46:19;;;;;;;9.02;6.82;;;7.40;57.10;;;;;;4994753;28;20235;-75
2022/02/10 22:48:48;;;;;;;7.50;6.03;;;7.40;57.00;;;;;;4989272;28;20302;-76
2022/02/10 22:51:17;;;;;;;8.95;7.35;;;7.40;56.20;;;;;;4978860;28;20211;-75
2022/02/10 22:53:45;;;;;;;7.90;5.90;;;7.40;55.50;;;;;;4979974;28;20205;-76
2022/02/10 22:56:14;;;;;;;7.88;6.45;;;7.40;55.70;;;;;;4978915;28;20258;-76
2022/02/10 22:58:41;;;;;;;12.57;7.30;;;7.40;55.90;;;;;;4976070;28;20203;-75
2022/02/10 23:01:11;;;;;;;9.95;7.25;;;7.40;56.10;;;;;;4975817;28;20331;-75
2022/02/10 23:03:40;;;;;;;12.05;7.03;;;7.40;56.10;;;;;;4980046;28;20290;-75
2022/02/10 23:06:09;;;;;;;8.68;6.95;;;7.40;56.40;;;;;;4984747;28;20237;-77
2022/02/10 23:08:37;;;;;;;10.35;8.68;;;7.40;56.40;;;;;;4984527;28;20375;-75
2022/02/10 23:11:05;;;;;;;9.48;6.60;;;7.40;56.70;;;;;;4985064;28;20219;-77
2022/02/10 23:13:34;;;;;;;10.25;7.43;;;7.40;56.60;;;;;;4982929;28;20212;-76
2022/02/10 23:16:04;;;;;;;8.65;6.72;;;7.40;56.60;;;;;;4981964;28;20744;-77
2022/02/10 23:18:32;;;;;;;8.20;6.63;;;7.40;57.40;;;;;;4977059;28;20213;-77
2022/02/10 23:21:02;;;;;;;11.07;7.35;;;7.40;57.40;;;;;;4976393;28;20241;-76
2022/02/10 23:23:31;;;;;;;8.30;6.93;;;7.40;57.40;;;;;;4975989;28;20681;-77
2022/02/10 23:25:59;;;;;;;12.27;7.43;;;7.40;57.40;;;;;;4979917;28;20309;-75
2022/02/10 23:28:30;;;;;;;11.30;6.70;;;7.40;57.40;;;;;;4982354;28;20304;-75
2022/02/10 23:30:59;;;;;;;9.40;7.15;;;7.40;57.40;;;;;;4976869;28;20572;-75
2022/02/10 23:33:29;;;;;;;9.40;7.30;;;7.40;58.00;;;;;;4995996;28;20201;-76
2022/02/10 23:38:51;;;;;;;13.02;8.00;;;7.40;58.80;;;;;;4983921;28;20252;-76
2022/02/10 23:44:13;;;;;;;9.45;6.88;;;7.40;59.20;;;;;;4944119;28;20218;-75
2022/02/10 23:46:41;;;;;;;11.05;6.45;;;7.30;59.30;;;;;;4976982;28;20241;-75
2022/02/10 23:49:08;;;;;;;9.40;6.30;;;7.30;59.20;;;;;;4982241;28;20783;-75
2022/02/10 23:51:42;;;;;;;11.15;7.15;;;7.30;59.10;;;;;;4989697;28;20244;-75
2022/02/10 23:54:09;;;;;;;8.95;6.55;;;7.30;59.10;;;;;;5011344;28;20269;-73
2022/02/10 23:56:42;;;;;;;8.23;6.15;;;7.40;58.80;;;;;;5004139;28;20253;-74
2022/02/10 23:59:17;;;;;;;9.15;6.38;;;7.30;58.50;;;;;;4994084;28;20292;-74
